createdAt,value
2018-02-15T00:01:32.337Z,100431.11
2018-02-15T00:03:58.695Z,100432.42
2018-02-15T00:06:26.851Z,100431.13
2018-02-15T00:08:53.940Z,100422.66
2018-02-15T00:11:20.275Z,100417.97
2018-02-15T00:13:46.594Z,100424.86
2018-02-15T00:16:12.912Z,100421.81
2018-02-15T00:18:40.017Z,100414.61
2018-02-15T00:21:06.314Z,100414.59
2018-02-15T00:23:32.678Z,100417.59
2018-02-15T00:25:58.997Z,100419.77
2018-02-15T00:28:25.370Z,100409.56
2018-02-15T00:30:52.406Z,100413.47
2018-02-15T00:33:18.743Z,100413.42
2018-02-15T00:35:45.075Z,100415.70
2018-02-15T00:38:11.443Z,100409.45
2018-02-15T00:40:37.772Z,100409.17
2018-02-15T00:43:04.135Z,100408.69
2018-02-15T00:45:30.582Z,100420.30
2018-02-15T00:47:56.919Z,100421.01
2018-02-15T00:50:23.259Z,100423.55
2018-02-15T00:52:49.576Z,100429.45
2018-02-15T00:55:15.877Z,100420.91
2018-02-15T00:57:42.219Z,100424.77
2018-02-15T01:00:08.581Z,100421.34
2018-02-15T01:02:35.646Z,100421.22
2018-02-15T01:05:02.755Z,100419.76
2018-02-15T01:07:29.028Z,100425.42
2018-02-15T01:09:56.140Z,100426.41
2018-02-15T01:12:22.454Z,100422.73
2018-02-15T01:14:48.786Z,100413.45
2018-02-15T01:17:15.116Z,100416.95
2018-02-15T01:19:41.492Z,100421.83
2018-02-15T01:22:07.860Z,100422.30
2018-02-15T01:24:34.432Z,100422.31
2018-02-15T01:27:00.785Z,100425.79
2018-02-15T01:29:27.168Z,100419.92
2018-02-15T01:31:53.600Z,100422.83
2018-02-15T01:34:19.944Z,100421.30
2018-02-15T01:36:46.405Z,100428.28
2018-02-15T01:39:12.737Z,100429.63
2018-02-15T01:41:39.100Z,100427.11
2018-02-15T01:44:06.203Z,100425.88
2018-02-15T01:46:32.561Z,100421.67
2018-02-15T01:48:59.009Z,100420.33
2018-02-15T01:51:26.107Z,100427.11
2018-02-15T01:53:52.436Z,100420.30
2018-02-15T01:56:18.790Z,100423.42
2018-02-15T01:58:45.098Z,100420.86
2018-02-15T02:01:11.431Z,100409.87
2018-02-15T02:03:37.742Z,100413.37
2018-02-15T02:06:04.094Z,100404.89
2018-02-15T02:08:30.404Z,100398.91
2018-02-15T02:10:56.736Z,100395.48
2018-02-15T02:13:23.072Z,100393.30
2018-02-15T02:15:49.392Z,100392.42
2018-02-15T02:18:15.760Z,100388.25
2018-02-15T02:20:42.366Z,100384.03
2018-02-15T02:23:08.847Z,100386.50
2018-02-15T02:25:35.199Z,100382.23
2018-02-15T02:28:02.271Z,100389.86
2018-02-15T02:30:28.655Z,100391.08
2018-02-15T02:32:55.663Z,100394.50
2018-02-15T02:35:22.012Z,100391.91
2018-02-15T02:37:48.319Z,100387.11
2018-02-15T02:40:14.663Z,100387.03
2018-02-15T02:42:40.983Z,100386.13
2018-02-15T02:45:07.324Z,100383.02
2018-02-15T02:47:33.647Z,100386.86
2018-02-15T02:49:59.945Z,100386.42
2018-02-15T02:52:26.251Z,100387.28
2018-02-15T02:54:52.579Z,100379.11
2018-02-15T02:57:18.936Z,100386.39
2018-02-15T02:59:45.252Z,100383.97
2018-02-15T03:02:11.551Z,100379.70
2018-02-15T03:04:37.855Z,100384.73
2018-02-15T03:07:04.934Z,100384.41
2018-02-15T03:09:31.213Z,100385.93
2018-02-15T03:11:59.011Z,100382.42
2018-02-15T03:14:25.324Z,100386.77
2018-02-15T03:16:52.422Z,100386.72
2018-02-15T03:19:18.729Z,100385.43
2018-02-15T03:21:45.047Z,100390.56
2018-02-15T03:24:11.379Z,100389.78
2018-02-15T03:26:37.687Z,100394.59
2018-02-15T03:29:04.766Z,100395.11
2018-02-15T03:31:31.072Z,100390.49
2018-02-15T03:33:58.174Z,100381.98
2018-02-15T03:36:24.485Z,100386.77
2018-02-15T03:38:50.850Z,100378.64
2018-02-15T03:41:17.190Z,100375.23
2018-02-15T03:43:43.528Z,100371.92
2018-02-15T03:46:09.928Z,100374.03
2018-02-15T03:48:37.132Z,100376.69
2018-02-15T03:51:03.455Z,100366.08
2018-02-15T03:53:30.534Z,100358.83
2018-02-15T03:55:56.836Z,100345.63
2018-02-15T03:58:23.897Z,100354.91
2018-02-15T04:00:50.946Z,100345.58
2018-02-15T04:03:18.000Z,100345.50
2018-02-15T04:05:44.305Z,100344.98
2018-02-15T04:08:10.689Z,100346.09
2018-02-15T04:10:37.015Z,100341.02
2018-02-15T04:13:03.555Z,100344.55
2018-02-15T04:15:29.908Z,100352.51
2018-02-15T04:17:56.231Z,100351.55
2018-02-15T04:20:22.559Z,100352.31
2018-02-15T04:22:48.865Z,100354.64
2018-02-15T04:25:15.179Z,100349.70
2018-02-15T04:27:43.314Z,100354.44
2018-02-15T04:30:09.690Z,100361.20
2018-02-15T04:32:37.645Z,100355.18
2018-02-15T04:35:04.684Z,100356.72
2018-02-15T04:37:31.005Z,100355.97
2018-02-15T04:39:57.352Z,100357.34
2018-02-15T04:42:24.398Z,100360.92
2018-02-15T04:44:51.500Z,100356.66
2018-02-15T04:47:17.812Z,100351.56
2018-02-15T04:49:44.156Z,100355.80
2018-02-15T04:52:10.464Z,100346.85
2018-02-15T04:54:36.915Z,100357.69
2018-02-15T04:57:03.246Z,100351.39
2018-02-15T04:59:29.595Z,100355.30
2018-02-15T05:01:55.915Z,100355.34
2018-02-15T05:04:22.242Z,100357.12
2018-02-15T05:06:48.553Z,100355.09
2018-02-15T05:09:14.886Z,100362.83
2018-02-15T05:11:41.239Z,100366.71
2018-02-15T05:14:07.541Z,100364.80
2018-02-15T05:16:34.599Z,100369.41
2018-02-15T05:19:00.962Z,100369.36
2018-02-15T05:21:27.247Z,100363.11
2018-02-15T05:23:54.302Z,100369.22
2018-02-15T05:26:21.346Z,100358.19
2018-02-15T05:28:48.484Z,100350.52
2018-02-15T05:31:15.556Z,100359.55
2018-02-15T05:33:41.896Z,100349.28
2018-02-15T05:36:08.247Z,100344.65
2018-02-15T05:38:34.661Z,100336.14
2018-02-15T05:41:00.999Z,100334.42
2018-02-15T05:43:27.331Z,100329.80
2018-02-15T05:45:53.678Z,100333.29
2018-02-15T05:48:20.074Z,100323.59
2018-02-15T05:50:46.403Z,100320.11
2018-02-15T05:53:13.485Z,100318.41
2018-02-15T05:55:40.669Z,100320.96
2018-02-15T05:58:07.033Z,100325.61
2018-02-15T06:00:34.124Z,100328.99
2018-02-15T06:03:00.432Z,100327.66
2018-02-15T06:05:26.806Z,100332.36
2018-02-15T06:07:53.150Z,100334.86
2018-02-15T06:10:20.228Z,100328.28
2018-02-15T06:12:46.571Z,100334.47
2018-02-15T06:15:12.902Z,100339.00
2018-02-15T06:17:39.669Z,100332.91
2018-02-15T06:20:06.426Z,100338.23
2018-02-15T06:22:33.155Z,100342.05
2018-02-15T06:24:59.770Z,100340.50
2018-02-15T06:27:26.364Z,100334.84
2018-02-15T06:29:53.768Z,100330.36
2018-02-15T06:32:20.443Z,100334.77
2018-02-15T06:34:47.794Z,100334.66
2018-02-15T06:37:14.535Z,100333.58
2018-02-15T06:39:41.147Z,100331.73
2018-02-15T06:42:07.771Z,100341.52
2018-02-15T06:44:34.419Z,100344.17
2018-02-15T06:47:01.148Z,100357.66
2018-02-15T06:49:27.737Z,100358.92
2018-02-15T06:51:55.100Z,100355.50
2018-02-15T06:54:22.431Z,100364.89
2018-02-15T06:56:49.044Z,100360.17
2018-02-15T06:59:15.670Z,100359.48
2018-02-15T07:01:42.324Z,100354.72
2018-02-15T07:04:08.922Z,100349.52
2018-02-15T07:06:35.928Z,100347.78
2018-02-15T07:09:02.777Z,100338.58
2018-02-15T07:11:29.450Z,100338.47
2018-02-15T07:13:56.067Z,100336.67
2018-02-15T07:16:23.504Z,100336.07
2018-02-15T07:18:50.255Z,100333.26
2018-02-15T07:21:16.987Z,100325.85
2018-02-15T07:23:43.831Z,100326.09
2018-02-15T07:26:10.570Z,100327.78
2018-02-15T07:28:37.411Z,100329.33
2018-02-15T07:31:04.156Z,100333.32
2018-02-15T07:33:30.996Z,100335.62
2018-02-15T07:35:57.707Z,100332.08
2018-02-15T07:38:26.369Z,100327.40
2018-02-15T07:40:52.943Z,100326.59
2018-02-15T07:43:19.707Z,100326.28
2018-02-15T07:45:49.617Z,100311.27
2018-02-15T07:48:19.431Z,100319.11
2018-02-15T07:50:46.891Z,100314.74
2018-02-15T07:53:14.445Z,100314.20
2018-02-15T07:55:41.015Z,100313.36
2018-02-15T07:58:07.687Z,100314.55
2018-02-15T08:00:34.278Z,100314.75
2018-02-15T08:03:01.681Z,100306.80
2018-02-15T08:05:31.838Z,100302.05
2018-02-15T08:07:58.538Z,100294.78
2018-02-15T08:10:27.368Z,100295.89
2018-02-15T08:12:54.107Z,100286.80
2018-02-15T08:15:20.705Z,100282.27
2018-02-15T08:17:47.305Z,100286.87
2018-02-15T08:20:14.663Z,100286.16
2018-02-15T08:22:42.011Z,100289.98
2018-02-15T08:25:09.475Z,100290.88
2018-02-15T08:27:37.011Z,100296.27
2018-02-15T08:30:03.758Z,100296.64
2018-02-15T08:32:30.498Z,100295.97
2018-02-15T08:34:57.232Z,100301.60
2018-02-15T08:37:23.980Z,100305.11
2018-02-15T08:39:50.618Z,100304.28
2018-02-15T08:42:17.275Z,100302.25
2018-02-15T08:44:44.651Z,100299.28
2018-02-15T08:47:11.287Z,100301.31
2018-02-15T08:49:37.889Z,100301.28
2018-02-15T08:52:04.514Z,100291.27
2018-02-15T08:54:31.165Z,100287.16
2018-02-15T08:56:57.838Z,100279.97
2018-02-15T08:59:24.580Z,100278.05
2018-02-15T09:01:51.199Z,100294.62
2018-02-15T09:04:18.632Z,100284.70
2018-02-15T09:06:45.280Z,100274.18
2018-02-15T09:09:12.004Z,100279.43
2018-02-15T09:11:38.585Z,100277.37
2018-02-15T09:14:05.979Z,100269.95
2018-02-15T09:16:32.590Z,100273.74
2018-02-15T09:18:59.239Z,100288.14
2018-02-15T09:21:25.894Z,100276.38
2018-02-15T09:23:52.477Z,100268.89
2018-02-15T09:26:19.917Z,100282.56
2018-02-15T09:28:46.521Z,100291.13
2018-02-15T09:31:13.268Z,100277.47
2018-02-15T09:33:39.896Z,100270.34
2018-02-15T09:36:06.620Z,100268.59
2018-02-15T09:38:33.286Z,100259.39
2018-02-15T09:40:59.982Z,100264.45
2018-02-15T09:43:27.429Z,100262.48
2018-02-15T09:45:54.087Z,100256.66
2018-02-15T09:48:20.715Z,100262.53
2018-02-15T09:50:47.328Z,100261.18
2018-02-15T09:53:13.949Z,100252.51
2018-02-15T09:55:40.700Z,100254.92
2018-02-15T09:58:07.452Z,100252.86
2018-02-15T10:00:34.132Z,100250.22
2018-02-15T10:03:00.901Z,100257.59
2018-02-15T10:05:28.346Z,100259.41
2018-02-15T10:07:55.077Z,100252.59
2018-02-15T10:10:21.788Z,100255.98
2018-02-15T10:12:49.207Z,100243.59
2018-02-15T10:15:15.876Z,100239.42
2018-02-15T10:17:43.338Z,100248.04
2018-02-15T10:20:10.034Z,100251.30
2018-02-15T10:22:36.732Z,100252.10
2018-02-15T10:25:03.463Z,100248.61
2018-02-15T10:27:30.933Z,100251.80
2018-02-15T10:29:57.675Z,100245.23
2018-02-15T10:32:24.334Z,100250.44
2018-02-15T10:34:51.055Z,100241.59
2018-02-15T10:37:17.757Z,100247.01
2018-02-15T10:39:44.678Z,100238.12
2018-02-15T10:42:11.394Z,100238.48
2018-02-15T10:44:38.042Z,100233.77
2018-02-15T10:47:04.758Z,100238.32
2018-02-15T10:49:31.498Z,100233.18
2018-02-15T10:51:58.198Z,100241.31
2018-02-15T10:54:25.084Z,100232.48
2018-02-15T10:56:51.824Z,100234.42
2018-02-15T10:59:18.508Z,100234.24
2018-02-15T11:01:45.211Z,100234.20
2018-02-15T11:04:17.992Z,100233.05
2018-02-15T11:06:51.901Z,100231.98
2018-02-15T11:09:18.561Z,100240.95
2018-02-15T11:11:45.213Z,100226.09
2018-02-15T11:14:11.967Z,100222.37
2018-02-15T11:16:38.602Z,100218.50
2018-02-15T11:19:05.300Z,100218.00
2018-02-15T11:21:31.979Z,100212.49
2018-02-15T11:23:58.708Z,100213.37
2018-02-15T11:26:25.401Z,100207.20
2018-02-15T11:28:52.854Z,100209.89
2018-02-15T11:31:19.590Z,100200.92
2018-02-15T11:33:47.314Z,100191.52
2018-02-15T11:36:14.009Z,100191.39
2018-02-15T11:38:40.659Z,100190.72
2018-02-15T11:41:07.297Z,100194.30
2018-02-15T11:43:33.972Z,100186.93
2018-02-15T11:46:00.697Z,100184.36
2018-02-15T11:48:27.397Z,100182.75
2018-02-15T11:50:54.051Z,100184.08
2018-02-15T11:53:20.671Z,100176.66
2018-02-15T11:55:47.330Z,100172.77
2018-02-15T11:58:14.144Z,100163.16
2018-02-15T12:00:40.824Z,100166.57
2018-02-15T12:03:07.834Z,100148.31
2018-02-15T12:05:34.558Z,100147.91
2018-02-15T12:08:01.272Z,100142.69
2018-02-15T12:10:27.966Z,100131.07
2018-02-15T12:12:54.632Z,100120.12
2018-02-15T12:15:21.396Z,100128.63
2018-02-15T12:17:48.097Z,100122.92
2018-02-15T12:20:14.738Z,100118.55
2018-02-15T12:22:41.391Z,100114.44
2018-02-15T12:25:08.151Z,100118.94
2018-02-15T12:27:34.861Z,100111.79
2018-02-15T12:30:01.591Z,100106.55
2018-02-15T12:32:28.282Z,100099.66
2018-02-15T12:34:54.984Z,100094.53
2018-02-15T12:37:22.621Z,100099.48
2018-02-15T12:39:50.014Z,100097.61
2018-02-15T12:42:16.286Z,100100.02
2018-02-15T12:44:42.747Z,100096.27
2018-02-15T12:47:09.140Z,100090.45
2018-02-15T12:49:35.412Z,100085.34
2018-02-15T12:52:01.674Z,100081.95
2018-02-15T12:54:29.915Z,100063.75
2018-02-15T12:56:56.266Z,100059.70
2018-02-15T12:59:23.371Z,100065.66
2018-02-15T13:01:49.701Z,100059.50
2018-02-15T13:04:16.001Z,100058.56
2018-02-15T13:06:42.374Z,100049.73
2018-02-15T13:09:08.726Z,100051.95
2018-02-15T13:11:35.819Z,100042.88
2018-02-15T13:14:02.088Z,100042.39
2018-02-15T13:16:47.159Z,100041.23
2018-02-15T13:19:32.144Z,100044.15
2018-02-15T13:21:58.449Z,100035.53
2018-02-15T13:24:24.776Z,100036.50
2018-02-15T13:26:51.052Z,100029.57
2018-02-15T13:29:18.127Z,100031.31
2018-02-15T13:31:44.418Z,100030.97
2018-02-15T13:34:11.454Z,100025.25
2018-02-15T13:36:37.728Z,100022.92
2018-02-15T13:39:04.007Z,100023.45
2018-02-15T13:41:30.270Z,100025.72
2018-02-15T13:43:56.600Z,100021.60
2018-02-15T13:46:23.649Z,100025.81
2018-02-15T13:48:49.949Z,100016.52
2018-02-15T13:51:16.265Z,100015.63
2018-02-15T13:53:42.593Z,100014.72
2018-02-15T13:56:09.777Z,100010.52
2018-02-15T13:58:36.777Z,100003.75
2018-02-15T14:01:03.053Z,100014.59
2018-02-15T14:03:30.124Z,100010.61
2018-02-15T14:05:56.389Z,100003.28
2018-02-15T14:08:22.731Z,100011.03
2018-02-15T14:10:49.000Z,100014.23
2018-02-15T14:13:16.043Z,100017.39
2018-02-15T14:15:43.073Z,100016.30
2018-02-15T14:18:09.370Z,100014.72
2018-02-15T14:20:35.623Z,100015.08
2018-02-15T14:23:01.956Z,100016.48
2018-02-15T14:25:28.240Z,100011.22
2018-02-15T14:27:54.528Z,100016.70
2018-02-15T14:30:20.832Z,100012.86
2018-02-15T14:32:47.133Z,100009.48
2018-02-15T14:35:13.483Z,100010.30
2018-02-15T14:37:39.770Z,100008.66
2018-02-15T14:40:06.844Z,100010.16
2018-02-15T14:42:33.140Z,100020.94
2018-02-15T14:45:00.168Z,100026.47
2018-02-15T14:47:26.481Z,100015.72
2018-02-15T14:49:52.803Z,100015.33
2018-02-15T14:52:19.067Z,100008.48
2018-02-15T14:54:45.341Z,100000.25
2018-02-15T14:57:11.605Z,100008.68
2018-02-15T14:59:37.884Z,100013.31
2018-02-15T15:02:04.900Z,100015.88
2018-02-15T15:04:31.143Z,100007.53
2018-02-15T15:06:57.433Z,100012.31
2018-02-15T15:09:23.765Z,100003.16
2018-02-15T15:11:50.026Z,100008.17
2018-02-15T15:14:16.306Z,100009.39
2018-02-15T15:16:42.600Z,100007.14
2018-02-15T15:19:09.660Z,100017.28
2018-02-15T15:21:36.692Z,100015.25
2018-02-15T15:24:03.006Z,100019.30
2018-02-15T15:26:29.277Z,100014.08
2018-02-15T15:28:55.588Z,100022.76
2018-02-15T15:31:22.572Z,100026.14
2018-02-15T15:33:48.890Z,100025.48
2018-02-15T15:36:15.171Z,100028.11
2018-02-15T15:38:41.486Z,100025.56
2018-02-15T15:41:07.758Z,100018.89
2018-02-15T15:43:34.837Z,100016.77
2018-02-15T15:46:01.229Z,100011.16
2018-02-15T15:48:27.525Z,100008.27
2018-02-15T15:50:53.795Z,100000.98
2018-02-15T15:53:20.823Z,100007.62
2018-02-15T15:55:47.140Z,100007.45
2018-02-15T15:58:13.461Z,99986.45
2018-02-15T16:00:40.280Z,100000.42
2018-02-15T16:03:06.556Z,100000.52
2018-02-15T16:05:32.836Z,99998.66
2018-02-15T16:07:59.482Z,100002.20
2018-02-15T16:10:25.752Z,99993.80
2018-02-15T16:12:52.077Z,99980.41
2018-02-15T16:15:18.340Z,99981.16
2018-02-15T16:17:45.424Z,99984.44
2018-02-15T16:20:11.706Z,99977.11
2018-02-15T16:22:38.008Z,99980.23
2018-02-15T16:25:04.266Z,99990.53
2018-02-15T16:27:30.551Z,99987.66
2018-02-15T16:29:56.892Z,99986.77
2018-02-15T16:32:23.162Z,99990.81
2018-02-15T16:34:49.438Z,99976.55
2018-02-15T16:37:15.825Z,99987.70
2018-02-15T16:39:42.193Z,99985.17
2018-02-15T16:42:08.463Z,99978.20
2018-02-15T16:44:35.569Z,99989.23
2018-02-15T16:47:01.866Z,99983.23
2018-02-15T16:49:28.161Z,99989.83
2018-02-15T16:51:54.432Z,99984.39
2018-02-15T16:54:21.556Z,99996.39
2018-02-15T16:56:47.889Z,100003.81
2018-02-15T16:59:14.223Z,100002.73
2018-02-15T17:01:40.567Z,100000.52
2018-02-15T17:04:06.859Z,100006.80
2018-02-15T17:06:33.226Z,100002.96
2018-02-15T17:08:59.501Z,99999.08
2018-02-15T17:11:26.094Z,100009.59
2018-02-15T17:13:52.444Z,99994.66
2018-02-15T17:16:19.670Z,99999.07
2018-02-15T17:18:46.684Z,100000.58
2018-02-15T17:21:13.118Z,99999.38
2018-02-15T17:23:39.470Z,99998.66
2018-02-15T17:26:05.854Z,99991.18
2018-02-15T17:28:32.156Z,99991.13
2018-02-15T17:30:58.579Z,100004.08
2018-02-15T17:33:24.980Z,100002.10
2018-02-15T17:35:51.308Z,99998.78
2018-02-15T17:38:17.668Z,100009.34
2018-02-15T17:40:44.146Z,100003.27
2018-02-15T17:43:12.366Z,99998.88
2018-02-15T17:45:38.760Z,99989.55
2018-02-15T17:48:05.746Z,99992.00
2018-02-15T17:50:32.100Z,99991.13
2018-02-15T17:52:58.391Z,99988.24
2018-02-15T17:55:24.691Z,99980.83
2018-02-15T17:57:51.780Z,99992.77
2018-02-15T18:00:18.173Z,99982.45
2018-02-15T18:02:44.454Z,99985.53
2018-02-15T18:05:10.790Z,99990.52
2018-02-15T18:07:37.118Z,99984.08
2018-02-15T18:10:03.448Z,99980.98
2018-02-15T18:12:29.753Z,99977.88
2018-02-15T18:14:56.102Z,99974.70
2018-02-15T18:17:22.466Z,99980.54
2018-02-15T18:19:48.874Z,99974.27
2018-02-15T18:22:15.201Z,99971.98
2018-02-15T18:24:41.510Z,99967.47
2018-02-15T18:27:07.830Z,99965.95
2018-02-15T18:29:36.373Z,99970.55
2018-02-15T18:32:02.831Z,99971.77
2018-02-15T18:34:29.154Z,99974.64
2018-02-15T18:36:56.165Z,99971.40
2018-02-15T18:39:22.506Z,99964.33
2018-02-15T18:41:49.551Z,99964.86
2018-02-15T18:44:15.921Z,99960.36
2018-02-15T18:46:42.223Z,99956.55
2018-02-15T18:49:08.629Z,99962.32
2018-02-15T18:51:34.922Z,99951.42
2018-02-15T18:54:01.780Z,99953.53
2018-02-15T18:56:28.305Z,99962.84
2018-02-15T18:58:54.672Z,99973.86
2018-02-15T19:01:20.968Z,99967.79
2018-02-15T19:03:48.080Z,99966.94
2018-02-15T19:06:14.397Z,99963.29
2018-02-15T19:08:40.697Z,99950.70
2018-02-15T19:11:07.136Z,99945.17
2018-02-15T19:13:34.517Z,99955.44
2018-02-15T19:16:00.843Z,99951.87
2018-02-15T19:18:27.162Z,99949.27
2018-02-15T19:20:53.478Z,99950.68
2018-02-15T19:23:19.767Z,99958.79
2018-02-15T19:25:46.231Z,99954.32
2018-02-15T19:28:12.605Z,99955.31
2018-02-15T19:30:39.033Z,99955.86
2018-02-15T19:33:05.372Z,99943.55
2018-02-15T19:35:31.843Z,99946.50
2018-02-15T19:37:58.929Z,99944.20
2018-02-15T19:40:25.236Z,99948.78
2018-02-15T19:42:51.540Z,99944.66
2018-02-15T19:45:18.602Z,99945.03
2018-02-15T19:47:44.939Z,99941.94
2018-02-15T19:50:11.229Z,99944.55
2018-02-15T19:52:37.653Z,99945.29
2018-02-15T19:55:03.996Z,99936.33
2018-02-15T19:57:30.344Z,99941.39
2018-02-15T19:59:56.668Z,99940.37
2018-02-15T20:02:24.568Z,99934.35
2018-02-15T20:04:50.846Z,99932.60
2018-02-15T20:07:18.246Z,99930.53
2018-02-15T20:09:45.281Z,99922.09
2018-02-15T20:12:12.557Z,99921.90
2018-02-15T20:14:38.923Z,99919.11
2018-02-15T20:17:05.259Z,99919.76
2018-02-15T20:19:31.601Z,99934.03
2018-02-15T20:21:57.873Z,99925.00
2018-02-15T20:24:24.898Z,99929.10
2018-02-15T20:26:57.307Z,99936.21
2018-02-15T20:29:23.653Z,99939.08
2018-02-15T20:31:50.067Z,99936.94
2018-02-15T20:34:17.451Z,99932.46
2018-02-15T20:36:43.715Z,99938.24
2018-02-15T20:39:17.656Z,99931.63
2018-02-15T20:41:44.682Z,99930.25
2018-02-15T20:44:14.936Z,99927.38
2018-02-15T20:46:41.277Z,99932.97
2018-02-15T20:52:15.250Z,99931.70
2018-02-15T20:54:47.987Z,99927.02
2018-02-15T20:57:14.323Z,99927.92
2018-02-15T20:59:40.631Z,99932.87
2018-02-15T21:02:07.007Z,99925.36
2018-02-15T21:04:35.493Z,99924.29
2018-02-15T21:07:01.836Z,99928.62
2018-02-15T21:09:28.362Z,99929.85
2018-02-15T21:11:54.737Z,99927.30
2018-02-15T21:14:21.145Z,99945.93
2018-02-15T21:16:47.562Z,99943.84
2018-02-15T21:19:13.928Z,99945.56
2018-02-15T21:21:40.255Z,99949.04
2018-02-15T21:24:06.794Z,99955.01
2018-02-15T21:26:33.065Z,99952.48
2018-02-15T21:28:59.427Z,99959.11
2018-02-15T21:31:25.850Z,99954.86
2018-02-15T21:33:52.252Z,99955.28
2018-02-15T21:36:18.576Z,99954.44
2018-02-15T21:38:45.654Z,99952.25
2018-02-15T21:41:11.965Z,99951.30
2018-02-15T21:43:40.400Z,99945.94
2018-02-15T21:46:06.723Z,99960.88
2018-02-15T21:48:33.130Z,99961.33
2018-02-15T21:50:59.439Z,99963.01
2018-02-15T21:53:25.736Z,99962.25
2018-02-15T21:55:52.081Z,99977.41
2018-02-15T21:58:19.185Z,99969.67
2018-02-15T22:00:45.485Z,99968.56
2018-02-15T22:03:11.787Z,99977.73
2018-02-15T22:05:38.897Z,99981.72
2018-02-15T22:08:06.060Z,99983.09
2018-02-15T22:10:32.374Z,99985.23
2018-02-15T22:12:58.740Z,99982.17
2018-02-15T22:15:25.693Z,99987.20
2018-02-15T22:17:52.718Z,99981.00
2018-02-15T22:20:19.074Z,99984.63
2018-02-15T22:22:46.222Z,99992.52
2018-02-15T22:25:13.321Z,99997.08
2018-02-15T22:27:39.611Z,99993.60
2018-02-15T22:30:06.640Z,99993.52
2018-02-15T22:32:32.945Z,99987.50
2018-02-15T22:35:00.061Z,99983.74
2018-02-15T22:37:26.422Z,99983.06
2018-02-15T22:39:52.715Z,99968.29
2018-02-15T22:42:19.039Z,99989.33
2018-02-15T22:44:45.395Z,99983.41
2018-02-15T22:47:11.673Z,99981.54
2018-02-15T22:49:38.769Z,99984.26
2018-02-15T22:52:05.057Z,99991.67
2018-02-15T22:54:31.354Z,99983.19
2018-02-15T22:56:57.704Z,99979.70
2018-02-15T22:59:24.006Z,99978.27
2018-02-15T23:01:50.355Z,99987.03
2018-02-15T23:04:16.704Z,99995.20
2018-02-15T23:06:43.030Z,99998.64
2018-02-15T23:09:09.316Z,99997.61
2018-02-15T23:11:35.588Z,100002.93
2018-02-15T23:14:01.890Z,100006.98
2018-02-15T23:16:28.202Z,99999.26
2018-02-15T23:18:54.508Z,100005.50
2018-02-15T23:21:21.509Z,99998.23
2018-02-15T23:23:47.878Z,99992.18
2018-02-15T23:26:14.168Z,99977.86
2018-02-15T23:28:40.444Z,99983.49
2018-02-15T23:31:07.464Z,99984.87
2018-02-15T23:33:33.744Z,99983.82
2018-02-15T23:36:00.052Z,99988.84
2018-02-15T23:38:27.119Z,99977.59
2018-02-15T23:40:53.436Z,99970.85
2018-02-15T23:43:20.529Z,99968.14
2018-02-15T23:45:46.807Z,99984.09
2018-02-15T23:48:13.113Z,99983.52
2018-02-15T23:50:39.487Z,99984.48
2018-02-15T23:53:05.775Z,99982.38
2018-02-15T23:55:32.056Z,99986.24
2018-02-15T23:57:58.317Z,99981.80
